createdAt,value
2019-02-21T00:01:44.803Z,19.97
2019-02-21T00:04:13.554Z,17.83
2019-02-21T00:06:42.317Z,15.90
2019-02-21T00:09:11.043Z,20.37
2019-02-21T00:11:39.876Z,18.20
2019-02-21T00:14:08.599Z,14.87
2019-02-21T00:16:37.317Z,23.30
2019-02-21T00:19:06.065Z,16.77
2019-02-21T00:21:34.853Z,18.17
2019-02-21T00:24:03.685Z,19.80
2019-02-21T00:26:32.491Z,22.00
2019-02-21T00:29:01.213Z,18.80
2019-02-21T00:31:29.993Z,15.67
2019-02-21T00:33:58.742Z,22.80
2019-02-21T00:36:27.445Z,21.80
2019-02-21T00:38:56.316Z,16.03
2019-02-21T00:41:25.088Z,20.70
2019-02-21T00:43:53.827Z,16.60
2019-02-21T00:46:22.634Z,20.23
2019-02-21T00:48:51.378Z,19.03
2019-02-21T00:51:20.104Z,16.97
2019-02-21T00:53:48.864Z,18.17
2019-02-21T00:56:17.591Z,16.87
2019-02-21T00:58:46.304Z,17.43
2019-02-21T01:01:15.045Z,17.47
2019-02-21T01:03:43.858Z,20.17
2019-02-21T01:06:12.675Z,18.63
2019-02-21T01:08:41.480Z,18.70
2019-02-21T01:11:10.186Z,20.37
2019-02-21T01:13:38.922Z,20.73
2019-02-21T01:16:07.635Z,17.53
2019-02-21T01:18:36.516Z,18.47
2019-02-21T01:21:05.258Z,20.13
2019-02-21T01:23:33.981Z,20.93
2019-02-21T01:26:02.712Z,23.17
2019-02-21T01:28:31.478Z,19.63
2019-02-21T01:31:00.258Z,22.67
2019-02-21T01:33:29.064Z,18.10
2019-02-21T01:35:58.045Z,17.07
2019-02-21T01:38:26.965Z,20.90
2019-02-21T01:40:55.719Z,20.73
2019-02-21T01:43:24.492Z,23.13
2019-02-21T01:45:53.212Z,19.67
2019-02-21T01:48:22.089Z,16.97
2019-02-21T01:50:50.786Z,16.03
2019-02-21T01:53:19.629Z,18.20
2019-02-21T01:55:48.395Z,14.93
2019-02-21T01:58:17.121Z,19.10
2019-02-21T02:00:45.902Z,18.83
2019-02-21T02:03:14.710Z,19.77
2019-02-21T02:05:43.464Z,23.17
2019-02-21T02:08:12.266Z,21.67
2019-02-21T02:10:41.039Z,22.30
2019-02-21T02:13:23.555Z,24.33
2019-02-21T02:15:40.296Z,19.73
2019-02-21T02:18:09.015Z,17.73
2019-02-21T02:20:37.770Z,19.60
2019-02-21T02:23:06.482Z,16.70
2019-02-21T02:25:35.214Z,23.30
2019-02-21T02:28:03.946Z,18.23
2019-02-21T02:30:32.762Z,22.10
2019-02-21T02:33:01.549Z,20.80
2019-02-21T02:35:30.356Z,23.73
2019-02-21T02:37:59.125Z,18.47
2019-02-21T02:40:27.892Z,26.27
2019-02-21T02:42:56.678Z,20.67
2019-02-21T02:45:25.420Z,19.80
2019-02-21T02:47:54.291Z,21.90
2019-02-21T02:50:23.213Z,20.63
2019-02-21T02:52:51.987Z,21.80
2019-02-21T02:55:20.738Z,22.87
2019-02-21T02:57:49.590Z,22.63
2019-02-21T03:00:18.371Z,23.53
2019-02-21T03:02:47.150Z,17.13
2019-02-21T03:05:15.960Z,20.80
2019-02-21T03:07:44.747Z,23.37
2019-02-21T03:10:14.361Z,18.70
2019-02-21T03:12:43.138Z,16.63
2019-02-21T03:15:11.985Z,23.77
2019-02-21T03:17:40.715Z,19.30
2019-02-21T03:20:09.634Z,28.73
2019-02-21T03:22:38.389Z,20.37
2019-02-21T03:25:07.189Z,20.93
2019-02-21T03:27:35.892Z,24.90
2019-02-21T03:30:04.890Z,17.33
2019-02-21T03:32:33.604Z,24.83
2019-02-21T03:35:02.399Z,21.10
2019-02-21T03:37:31.231Z,21.63
2019-02-21T03:40:00.010Z,20.13
2019-02-21T03:42:28.724Z,27.77
2019-02-21T03:44:57.538Z,32.80
2019-02-21T03:47:26.333Z,26.60
2019-02-21T03:49:55.115Z,18.50
2019-02-21T03:52:23.962Z,18.70
2019-02-21T03:54:52.873Z,23.87
2019-02-21T03:57:21.673Z,23.53
2019-02-21T03:59:50.447Z,22.30
2019-02-21T04:02:19.292Z,29.27
2019-02-21T04:04:48.072Z,26.87
2019-02-21T04:07:16.868Z,19.07
2019-02-21T04:09:45.574Z,23.23
2019-02-21T04:12:14.533Z,27.00
2019-02-21T04:14:43.288Z,21.03
2019-02-21T04:17:11.997Z,18.47
2019-02-21T04:19:40.791Z,23.37
2019-02-21T04:22:09.547Z,26.20
2019-02-21T04:24:38.318Z,21.07
2019-02-21T04:27:07.156Z,19.80
2019-02-21T04:29:35.932Z,19.43
2019-02-21T04:32:16.110Z,23.13
2019-02-21T04:34:35.125Z,28.00
2019-02-21T04:37:03.864Z,19.80
2019-02-21T04:39:32.666Z,22.33
2019-02-21T04:42:01.424Z,19.87
2019-02-21T04:44:30.207Z,23.47
2019-02-21T04:46:59.030Z,25.50
2019-02-21T04:49:27.842Z,30.03
2019-02-21T04:51:56.661Z,23.57
2019-02-21T04:54:25.430Z,25.43
2019-02-21T04:56:54.262Z,26.43
2019-02-21T04:59:23.078Z,25.43
2019-02-21T05:01:51.864Z,29.13
2019-02-21T05:04:20.649Z,27.50
2019-02-21T05:06:49.420Z,21.50
2019-02-21T05:09:18.211Z,22.00
2019-02-21T05:11:46.945Z,23.17
2019-02-21T05:14:15.738Z,21.13
2019-02-21T05:16:44.764Z,20.83
2019-02-21T05:19:13.609Z,18.33
2019-02-21T05:21:42.373Z,25.20
2019-02-21T05:24:11.183Z,23.67
2019-02-21T05:26:49.990Z,19.23
2019-02-21T05:29:18.852Z,26.17
2019-02-21T05:32:09.724Z,29.63
2019-02-21T05:34:46.668Z,21.90
2019-02-21T05:37:32.474Z,20.37
2019-02-21T05:40:18.817Z,20.33
2019-02-21T05:43:09.721Z,23.80
2019-02-21T05:46:12.770Z,21.10
2019-02-21T05:49:00.625Z,23.73
2019-02-21T05:51:57.587Z,19.83
2019-02-21T05:54:49.168Z,21.43
2019-02-21T05:57:36.925Z,29.43
2019-02-21T06:00:23.891Z,28.33
2019-02-21T06:03:07.322Z,20.23
2019-02-21T06:05:58.205Z,25.23
2019-02-21T06:08:37.552Z,29.43
2019-02-21T06:11:25.318Z,26.13
2019-02-21T06:14:13.259Z,23.60
2019-02-21T06:17:07.180Z,26.10
2019-02-21T06:20:03.992Z,26.00
2019-02-21T06:22:51.947Z,24.13
2019-02-21T06:25:50.836Z,21.40
2019-02-21T06:28:18.724Z,21.97
2019-02-21T06:30:53.843Z,24.83
2019-02-21T06:33:22.598Z,22.77
2019-02-21T06:35:51.319Z,19.27
2019-02-21T06:38:20.190Z,24.97
2019-02-21T06:40:48.942Z,21.50
2019-02-21T06:43:17.743Z,23.23
2019-02-21T06:45:46.525Z,21.63
2019-02-21T06:48:15.351Z,25.97
2019-02-21T06:50:44.072Z,23.30
2019-02-21T06:53:12.817Z,22.03
2019-02-21T06:55:41.543Z,21.60
2019-02-21T06:58:10.319Z,21.73
2019-02-21T07:00:39.037Z,22.27
2019-02-21T07:03:15.472Z,28.63
2019-02-21T07:05:38.335Z,23.00
2019-02-21T07:08:08.854Z,22.57
2019-02-21T07:10:37.611Z,21.07
2019-02-21T07:13:06.436Z,23.93
2019-02-21T07:15:35.191Z,24.87
2019-02-21T07:18:03.920Z,20.57
2019-02-21T07:20:32.740Z,20.93
2019-02-21T07:23:01.604Z,26.37
2019-02-21T07:25:43.224Z,23.73
2019-02-21T07:28:15.621Z,23.60
2019-02-21T07:30:43.018Z,24.73
2019-02-21T07:33:12.111Z,28.40
2019-02-21T07:35:40.966Z,25.80
2019-02-21T07:38:09.745Z,25.33
2019-02-21T07:40:38.546Z,27.17
2019-02-21T07:43:07.332Z,22.83
2019-02-21T07:45:36.592Z,21.87
2019-02-21T07:48:05.428Z,21.13
2019-02-21T07:50:34.252Z,22.10
2019-02-21T07:53:03.115Z,24.90
2019-02-21T07:55:31.945Z,27.33
2019-02-21T07:58:00.814Z,20.33
2019-02-21T08:00:29.595Z,23.33
2019-02-21T08:02:58.387Z,19.30
2019-02-21T08:05:27.198Z,19.03
2019-02-21T08:07:55.991Z,24.07
2019-02-21T08:10:33.143Z,23.80
2019-02-21T08:12:55.189Z,24.90
2019-02-21T08:15:24.043Z,23.23
2019-02-21T08:17:52.812Z,20.47
2019-02-21T08:20:21.626Z,20.80
2019-02-21T08:22:50.454Z,20.43
2019-02-21T08:25:19.500Z,18.00
2019-02-21T08:27:48.424Z,19.57
2019-02-21T08:30:17.159Z,22.20
2019-02-21T08:33:09.164Z,29.03
2019-02-21T08:35:37.894Z,24.13
2019-02-21T08:38:06.663Z,24.87
2019-02-21T08:40:35.430Z,19.47
2019-02-21T08:43:04.305Z,20.23
2019-02-21T08:45:33.146Z,26.03
2019-02-21T08:48:01.838Z,20.97
2019-02-21T08:50:30.602Z,25.67
2019-02-21T08:53:01.028Z,21.87
2019-02-21T08:55:29.787Z,28.93
2019-02-21T08:57:58.595Z,24.73
2019-02-21T09:00:27.373Z,20.57
2019-02-21T09:02:58.083Z,20.57
2019-02-21T09:05:26.601Z,22.50
2019-02-21T09:07:55.412Z,21.27
2019-02-21T09:10:24.137Z,23.07
2019-02-21T09:12:52.871Z,21.40
2019-02-21T09:15:21.561Z,24.53
2019-02-21T09:17:50.410Z,25.50
2019-02-21T09:20:19.273Z,22.83
2019-02-21T09:22:48.068Z,20.97
2019-02-21T09:25:16.871Z,22.60
2019-02-21T09:27:45.589Z,27.67
2019-02-21T09:30:15.373Z,26.53
2019-02-21T09:32:44.197Z,21.70
2019-02-21T09:35:12.986Z,24.47
2019-02-21T09:37:41.719Z,18.50
2019-02-21T09:40:11.396Z,23.93
2019-02-21T09:42:40.231Z,26.43
2019-02-21T09:45:10.244Z,24.90
2019-02-21T09:47:39.110Z,27.53
2019-02-21T09:50:08.356Z,25.00
2019-02-21T09:52:37.138Z,23.63
2019-02-21T09:55:07.120Z,26.13
2019-02-21T09:57:35.844Z,19.10
2019-02-21T10:00:05.119Z,26.13
2019-02-21T10:02:34.068Z,19.50
2019-02-21T10:05:05.332Z,23.13
2019-02-21T10:07:33.275Z,25.20
2019-02-21T10:10:01.986Z,22.07
2019-02-21T10:12:30.737Z,23.73
2019-02-21T10:14:59.663Z,22.10
2019-02-21T10:17:28.395Z,24.40
2019-02-21T10:19:57.153Z,22.13
2019-02-21T10:22:26.278Z,22.80
2019-02-21T10:24:56.955Z,20.47
2019-02-21T10:27:25.540Z,22.07
2019-02-21T10:29:54.257Z,22.10
2019-02-21T10:32:22.995Z,16.97
2019-02-21T10:34:53.065Z,18.80
2019-02-21T10:37:22.009Z,30.03
2019-02-21T10:39:50.815Z,24.70
2019-02-21T10:42:19.649Z,23.50
2019-02-21T10:44:48.382Z,25.47
2019-02-21T10:47:17.211Z,24.80
2019-02-21T10:49:45.980Z,22.90
2019-02-21T10:52:14.881Z,23.70
2019-02-21T10:54:43.638Z,23.13
2019-02-21T10:57:12.381Z,27.40
2019-02-21T10:59:46.673Z,23.47
2019-02-21T11:02:11.691Z,23.90
2019-02-21T11:04:42.219Z,25.43
2019-02-21T11:07:10.947Z,25.03
2019-02-21T11:09:39.698Z,22.17
2019-02-21T11:12:08.480Z,23.73
2019-02-21T11:14:47.245Z,20.90
2019-02-21T11:17:07.786Z,24.87
2019-02-21T11:19:36.586Z,21.93
2019-02-21T11:22:05.408Z,22.53
2019-02-21T11:24:34.216Z,27.57
2019-02-21T11:27:02.952Z,27.80
2019-02-21T11:29:31.869Z,29.47
2019-02-21T11:32:00.633Z,24.00
2019-02-21T11:34:29.377Z,29.80
2019-02-21T11:36:58.184Z,27.50
2019-02-21T11:39:27.034Z,24.03
2019-02-21T11:41:55.824Z,29.43
2019-02-21T11:44:24.611Z,27.63
2019-02-21T11:46:53.360Z,22.47
2019-02-21T11:49:22.188Z,26.10
2019-02-21T11:51:51.009Z,28.80
2019-02-21T11:54:26.989Z,21.70
2019-02-21T11:56:50.226Z,26.97
2019-02-21T11:59:18.965Z,26.47
2019-02-21T12:01:47.789Z,21.27
2019-02-21T12:04:16.572Z,22.17
2019-02-21T12:06:47.653Z,22.13
2019-02-21T12:09:15.826Z,23.57
2019-02-21T12:11:44.610Z,25.10
2019-02-21T12:14:13.415Z,25.03
2019-02-21T12:16:42.140Z,22.20
2019-02-21T12:19:10.980Z,22.30
2019-02-21T12:21:39.766Z,26.63
2019-02-21T12:24:08.548Z,23.40
2019-02-21T12:26:37.361Z,28.17
2019-02-21T12:29:06.147Z,27.53
2019-02-21T12:31:34.961Z,27.97
2019-02-21T12:34:03.789Z,24.20
2019-02-21T12:36:32.567Z,27.27
2019-02-21T12:39:02.001Z,28.43
2019-02-21T12:41:41.682Z,27.50
2019-02-21T12:44:10.519Z,29.07
2019-02-21T12:46:39.392Z,30.30
2019-02-21T12:49:10.623Z,26.90
2019-02-21T12:51:38.597Z,31.93
2019-02-21T12:54:07.419Z,23.57
2019-02-21T12:56:36.207Z,27.47
2019-02-21T12:59:04.956Z,26.83
2019-02-21T13:01:33.792Z,28.57
2019-02-21T13:04:02.636Z,28.30
2019-02-21T13:06:31.395Z,31.37
2019-02-21T13:09:00.149Z,28.40
2019-02-21T13:11:28.915Z,31.90
2019-02-21T13:13:57.680Z,30.83
2019-02-21T13:16:26.416Z,34.57
2019-02-21T13:18:55.136Z,26.00
2019-02-21T13:21:23.891Z,25.13
2019-02-21T13:23:52.620Z,27.23
2019-02-21T13:26:21.426Z,28.13
2019-02-21T13:28:50.151Z,32.10
2019-02-21T13:31:18.956Z,26.43
2019-02-21T13:33:47.789Z,29.10
2019-02-21T13:36:16.622Z,32.20
2019-02-21T13:38:45.413Z,23.93
2019-02-21T13:41:14.233Z,30.40
2019-02-21T13:43:42.940Z,30.77
2019-02-21T13:46:11.717Z,30.13
2019-02-21T13:48:40.568Z,33.77
2019-02-21T13:51:09.316Z,33.27
2019-02-21T13:53:38.156Z,36.00
2019-02-21T13:56:06.909Z,28.50
2019-02-21T13:58:35.690Z,32.10
2019-02-21T14:01:04.518Z,25.23
2019-02-21T14:03:33.325Z,31.67
2019-02-21T14:06:03.817Z,34.63
2019-02-21T14:08:32.614Z,31.97
2019-02-21T14:11:01.365Z,28.40
2019-02-21T14:13:30.093Z,26.63
2019-02-21T14:15:58.922Z,28.50
2019-02-21T14:18:27.725Z,31.90
2019-02-21T14:20:56.542Z,27.27
2019-02-21T14:23:27.937Z,27.47
2019-02-21T14:25:55.984Z,32.80
2019-02-21T14:28:24.750Z,29.50
2019-02-21T14:30:53.509Z,31.43
2019-02-21T14:33:22.274Z,25.93
2019-02-21T14:35:51.108Z,23.13
2019-02-21T14:38:27.874Z,27.97
2019-02-21T14:40:50.420Z,23.57
2019-02-21T14:43:19.178Z,29.70
2019-02-21T14:45:47.923Z,22.13
2019-02-21T14:48:16.685Z,25.03
2019-02-21T14:50:47.831Z,23.43
2019-02-21T14:53:16.600Z,23.80
2019-02-21T14:55:45.348Z,22.50
2019-02-21T14:58:14.182Z,22.40
2019-02-21T15:00:43.073Z,24.10
2019-02-21T15:03:21.699Z,24.67
2019-02-21T15:05:42.386Z,20.80
2019-02-21T15:08:11.220Z,20.13
2019-02-21T15:10:40.016Z,18.13
2019-02-21T15:13:09.948Z,19.60
2019-02-21T15:15:38.742Z,20.30
2019-02-21T15:18:10.509Z,20.77
2019-02-21T15:20:38.087Z,19.27
2019-02-21T15:23:06.911Z,19.80
2019-02-21T15:25:35.719Z,19.73
2019-02-21T15:28:04.488Z,15.80
2019-02-21T15:30:33.487Z,21.80
2019-02-21T15:33:02.308Z,19.57
2019-02-21T15:35:32.220Z,18.07
2019-02-21T15:38:01.077Z,15.43
2019-02-21T15:40:30.015Z,18.83
2019-02-21T15:42:58.856Z,21.33
2019-02-21T15:45:27.651Z,16.30
2019-02-21T15:47:56.402Z,13.87
2019-02-21T15:50:26.800Z,13.20
2019-02-21T15:52:55.763Z,14.67
2019-02-21T15:55:24.588Z,12.27
2019-02-21T15:58:03.433Z,14.30
2019-02-21T16:00:23.896Z,12.20
2019-02-21T16:02:52.798Z,10.10
2019-02-21T16:05:21.571Z,14.07
2019-02-21T16:07:50.432Z,9.77
2019-02-21T16:10:22.447Z,10.10
2019-02-21T16:12:51.619Z,7.00
2019-02-21T16:15:24.685Z,8.50
2019-02-21T16:17:56.476Z,9.53
2019-02-21T16:20:25.462Z,10.00
2019-02-21T16:22:54.250Z,7.27
2019-02-21T16:25:23.123Z,6.43
2019-02-21T16:27:51.920Z,6.97
2019-02-21T16:30:22.529Z,5.70
2019-02-21T16:32:51.373Z,7.23
2019-02-21T16:35:20.181Z,5.67
2019-02-21T16:37:48.974Z,5.77
2019-02-21T16:40:17.835Z,5.60
2019-02-21T16:42:46.694Z,4.20
2019-02-21T16:45:15.449Z,6.70
2019-02-21T16:47:44.299Z,5.53
2019-02-21T16:50:13.296Z,7.13
2019-02-21T16:52:42.105Z,4.60
2019-02-21T16:55:12.146Z,5.67
2019-02-21T16:57:40.901Z,4.70
2019-02-21T17:00:10.530Z,4.63
2019-02-21T17:02:39.420Z,4.70
2019-02-21T17:05:08.596Z,5.93
2019-02-21T17:07:37.300Z,5.87
2019-02-21T17:10:06.237Z,5.20
2019-02-21T17:12:36.978Z,4.53
2019-02-21T17:15:05.502Z,6.10
2019-02-21T17:17:34.262Z,6.60
2019-02-21T17:20:03.012Z,4.77
2019-02-21T17:22:31.761Z,6.03
2019-02-21T17:25:00.781Z,7.00
2019-02-21T17:27:29.554Z,5.87
2019-02-21T17:29:59.287Z,6.63
2019-02-21T17:32:28.201Z,7.50
2019-02-21T17:34:56.963Z,9.37
2019-02-21T17:37:25.721Z,10.70
2019-02-21T17:39:54.906Z,11.77
2019-02-21T17:42:23.718Z,8.93
2019-02-21T17:44:52.527Z,9.00
2019-02-21T17:47:21.293Z,18.07
2019-02-21T17:49:50.097Z,11.10
2019-02-21T17:52:19.072Z,12.17
2019-02-21T17:54:47.921Z,11.70
2019-02-21T17:57:16.745Z,11.87
2019-02-21T17:59:45.505Z,13.53
2019-02-21T18:02:14.403Z,16.03
2019-02-21T18:04:43.209Z,28.20
2019-02-21T18:07:12.040Z,15.97
2019-02-21T18:09:40.797Z,15.80
2019-02-21T18:12:09.621Z,13.53
2019-02-21T18:14:38.439Z,15.40
2019-02-21T18:17:07.217Z,15.83
2019-02-21T18:19:36.021Z,16.33
2019-02-21T18:22:04.739Z,15.57
2019-02-21T18:24:33.509Z,16.03
2019-02-21T18:27:02.227Z,14.03
2019-02-21T18:29:31.032Z,14.13
2019-02-21T18:31:59.854Z,15.73
2019-02-21T18:34:28.704Z,15.83
2019-02-21T18:36:57.538Z,16.80
2019-02-21T18:39:26.359Z,16.13
2019-02-21T18:41:55.331Z,16.80
2019-02-21T18:44:24.191Z,16.70
2019-02-21T18:46:53.047Z,16.17
2019-02-21T18:49:21.886Z,16.67
2019-02-21T18:51:50.652Z,16.33
2019-02-21T18:54:19.453Z,16.93
2019-02-21T18:56:48.340Z,16.90
2019-02-21T18:59:17.102Z,18.40
2019-02-21T19:01:45.925Z,22.23
2019-02-21T19:04:14.837Z,19.87
2019-02-21T19:06:43.623Z,20.43
2019-02-21T19:09:12.484Z,19.20
2019-02-21T19:11:41.342Z,26.23
2019-02-21T19:14:10.196Z,18.30
2019-02-21T19:16:39.067Z,19.33
2019-02-21T19:19:07.890Z,18.20
2019-02-21T19:21:36.713Z,16.23
2019-02-21T19:24:05.551Z,18.30
2019-02-21T19:26:34.422Z,18.80
2019-02-21T19:29:03.290Z,19.27
2019-02-21T19:31:32.164Z,16.10
2019-02-21T19:34:01.055Z,15.67
2019-02-21T19:36:30.233Z,19.70
2019-02-21T19:38:59.131Z,14.93
2019-02-21T19:41:27.992Z,16.03
2019-02-21T19:44:08.060Z,21.33
2019-02-21T19:46:27.446Z,18.87
2019-02-21T19:48:56.352Z,22.23
2019-02-21T19:51:25.245Z,24.90
2019-02-21T19:53:54.186Z,24.67
2019-02-21T19:56:23.168Z,24.60
2019-02-21T19:58:52.132Z,22.20
2019-02-21T20:01:22.125Z,21.30
2019-02-21T20:03:51.059Z,26.23
2019-02-21T20:06:20.077Z,20.33
2019-02-21T20:08:48.960Z,24.23
2019-02-21T20:11:17.883Z,24.23
2019-02-21T20:13:46.717Z,24.33
2019-02-21T20:16:15.609Z,17.50
2019-02-21T20:18:44.486Z,22.50
2019-02-21T20:21:13.323Z,27.87
2019-02-21T20:23:42.276Z,25.03
2019-02-21T20:26:18.353Z,23.67
2019-02-21T20:28:44.603Z,34.27
2019-02-21T20:31:13.536Z,29.83
2019-02-21T20:33:42.413Z,36.97
2019-02-21T20:36:11.276Z,26.30
2019-02-21T20:38:43.215Z,26.13
2019-02-21T20:41:12.201Z,25.63
2019-02-21T20:43:41.078Z,29.47
2019-02-21T20:46:10.234Z,23.60
2019-02-21T20:48:41.505Z,28.87
2019-02-21T20:51:10.349Z,30.03
2019-02-21T20:53:39.151Z,23.77
2019-02-21T20:56:07.962Z,42.00
2019-02-21T20:58:36.842Z,37.33
2019-02-21T21:01:06.733Z,32.00
2019-02-21T21:03:35.599Z,30.70
2019-02-21T21:06:04.511Z,37.80
2019-02-21T21:08:42.666Z,34.60
2019-02-21T21:11:03.873Z,35.63
2019-02-21T21:13:32.717Z,33.37
2019-02-21T21:16:01.474Z,37.87
2019-02-21T21:18:30.313Z,30.00
2019-02-21T21:20:59.156Z,29.07
2019-02-21T21:23:27.959Z,31.50
2019-02-21T21:25:56.894Z,39.00
2019-02-21T21:28:25.721Z,30.40
2019-02-21T21:30:54.949Z,32.60
2019-02-21T21:33:23.802Z,32.63
2019-02-21T21:35:52.607Z,37.30
2019-02-21T21:38:24.137Z,35.57
2019-02-21T21:40:51.874Z,35.53
2019-02-21T21:43:20.697Z,38.93
2019-02-21T21:45:49.429Z,41.33
2019-02-21T21:48:18.195Z,40.97
2019-02-21T21:50:46.976Z,34.13
2019-02-21T21:53:15.738Z,39.40
2019-02-21T21:55:44.590Z,41.07
2019-02-21T21:58:13.330Z,39.07
2019-02-21T22:00:42.408Z,39.33
2019-02-21T22:03:11.263Z,32.80
2019-02-21T22:05:40.083Z,40.13
2019-02-21T22:08:08.922Z,33.07
2019-02-21T22:10:37.641Z,46.60
2019-02-21T22:13:06.463Z,38.73
2019-02-21T22:15:35.262Z,41.00
2019-02-21T22:18:04.039Z,36.13
2019-02-21T22:20:32.849Z,32.43
2019-02-21T22:23:02.275Z,48.27
2019-02-21T22:25:31.190Z,37.53
2019-02-21T22:28:00.050Z,34.17
2019-02-21T22:30:28.858Z,36.80
2019-02-21T22:32:57.677Z,36.90
2019-02-21T22:35:26.506Z,33.50
2019-02-21T22:37:55.242Z,48.50
2019-02-21T22:40:23.963Z,38.00
2019-02-21T22:42:52.710Z,32.03
2019-02-21T22:45:21.518Z,32.70
2019-02-21T22:47:50.250Z,33.13
2019-02-21T22:50:19.134Z,27.57
2019-02-21T22:52:47.939Z,33.73
2019-02-21T22:55:16.686Z,30.63
2019-02-21T22:57:45.820Z,30.77
2019-02-21T23:00:36.520Z,36.73
2019-02-21T23:03:05.590Z,34.57
2019-02-21T23:05:42.321Z,31.83
2019-02-21T23:08:32.805Z,34.00
2019-02-21T23:11:01.630Z,33.17
2019-02-21T23:13:30.428Z,30.07
2019-02-21T23:15:59.172Z,39.63
2019-02-21T23:18:27.926Z,30.73
2019-02-21T23:20:59.718Z,31.80
2019-02-21T23:23:28.744Z,29.07
2019-02-21T23:25:57.526Z,32.50
2019-02-21T23:28:26.242Z,31.47
2019-02-21T23:30:54.984Z,33.03
2019-02-21T23:33:24.859Z,32.17
2019-02-21T23:35:53.641Z,32.23
2019-02-21T23:38:22.445Z,32.53
2019-02-21T23:40:51.150Z,32.37
2019-02-21T23:43:19.891Z,35.30
2019-02-21T23:45:48.606Z,35.47
2019-02-21T23:48:17.351Z,30.77
2019-02-21T23:50:46.044Z,36.57
2019-02-21T23:53:14.771Z,34.17
2019-02-21T23:55:43.498Z,40.10
2019-02-21T23:58:12.227Z,31.67
